Main page


Airports :

Chièvres, Belgium

Chièvres Air Base

latitude: 50-34N, longitude: 003-50E, elevation: 60 m

Current weather observation

The report was made 18 minutes ago, at 17:25 UTC
Wind 14 kt from the North
Temperature 5°C
Humidity 65%
Pressure 1026 hPa
Visibility 10 km or more

METAR: EBCV 201725Z AUTO 35014KT 9999 FEW045/// 05/M01 Q1026 BLU

Time: 18:43 (17:43 UTC)


The report was made 6 hours and 2 minutes ago, at 11:41 UTC
Forecast valid from 20 at 13 UTC to 20 at 22 UTC
Wind 12 kt from the North/Northeast with gusts up to 25 kt
Visibility 10 km or more
Few clouds at a height of 2500 ft
from 20 at 16 UTC to 20 at 18 UTC
Wind 10 kt from the North
Visibility 10 km or more
Scattered clouds at a height of 20000 ft

TAF: EBCV 201141Z 2013/2022 02012G25KT 9999 FEW025 BECMG 2016/2018 36010KT 9999 SCT200 BY EBWM

Weather observations and forecasts of more than 4000 airports (METAR and TAF reports).

The available stations are represented by yellow and red dots on the map.

Hover mouse over dot to see the name of the station.

Then click to see weather observations and forecasts.

To change the map : click on the green buttons with a black cross to zoom in, on the green button with a dash to zoom out, or on the green arrows for adjacent maps.